sensor_id;sensor_type;location;lat;lon;timestamp;pressure;altitude;pressure_sealevel;temperature;humidity
47104;BME280;32853;52.164;5.400;2024-03-23T00:53:33;100975.09;;;10.55;100.00
47104;BME280;32853;52.164;5.400;2024-03-23T00:55:58;100974.53;;;10.47;100.00
47104;BME280;32853;52.164;5.400;2024-03-23T00:58:24;100966.81;;;10.44;100.00
47104;BME280;32853;52.164;5.400;2024-03-23T01:00:49;100959.47;;;10.54;100.00
47104;BME280;32853;52.164;5.400;2024-03-23T01:03:14;100964.91;;;10.47;100.00
47104;BME280;32853;52.164;5.400;2024-03-23T01:05:43;100962.19;;;10.51;100.00
47104;BME280;32853;52.164;5.400;2024-03-23T01:08:09;100959.47;;;10.54;100.00
47104;BME280;32853;52.164;5.400;2024-03-23T01:10:34;100962.81;;;10.57;100.00
47104;BME280;32853;52.164;5.400;2024-03-23T01:13:06;100962.97;;;10.53;100.00
47104;BME280;32853;52.164;5.400;2024-03-23T01:15:32;100960.94;;;10.61;100.00
47104;BME280;32853;52.164;5.400;2024-03-23T01:17:57;100955.69;;;10.61;100.00
47104;BME280;32853;52.164;5.400;2024-03-23T01:20:24;100953.88;;;10.63;100.00
47104;BME280;32853;52.164;5.400;2024-03-23T01:25:28;100941.59;;;10.65;100.00
47104;BME280;32853;52.164;5.400;2024-03-23T01:27:53;100929.38;;;10.65;100.00
47104;BME280;32853;52.164;5.400;2024-03-23T01:30:37;100936.59;;;10.59;100.00
47104;BME280;32853;52.164;5.400;2024-03-23T01:33:02;100940.91;;;10.60;100.00
47104;BME280;32853;52.164;5.400;2024-03-23T01:35:28;100934.97;;;10.56;100.00
47104;BME280;32853;52.164;5.400;2024-03-23T01:37:55;100929.72;;;10.56;100.00
47104;BME280;32853;52.164;5.400;2024-03-23T01:40:25;100918.16;;;10.62;100.00
47104;BME280;32853;52.164;5.400;2024-03-23T01:42:55;100915.56;;;10.62;100.00
47104;BME280;32853;52.164;5.400;2024-03-23T01:45:22;100919.41;;;10.53;100.00
47104;BME280;32853;52.164;5.400;2024-03-23T01:47:48;100907.44;;;10.46;100.00
47104;BME280;32853;52.164;5.400;2024-03-23T01:50:15;100910.78;;;10.50;100.00
47104;BME280;32853;52.164;5.400;2024-03-23T01:52:41;100906.53;;;10.47;100.00
47104;BME280;32853;52.164;5.400;2024-03-23T01:55:07;100905.56;;;10.50;100.00
47104;BME280;32853;52.164;5.400;2024-03-23T02:00:31;100902.56;;;10.37;100.00
47104;BME280;32853;52.164;5.400;2024-03-23T02:02:56;100904.22;;;10.39;100.00
47104;BME280;32853;52.164;5.400;2024-03-23T02:05:34;100892.41;;;10.29;100.00
47104;BME280;32853;52.164;5.400;2024-03-23T02:07:59;100897.69;;;10.28;100.00
47104;BME280;32853;52.164;5.400;2024-03-23T02:10:24;100893.25;;;10.30;100.00
47104;BME280;32853;52.164;5.400;2024-03-23T02:12:50;100896.78;;;10.29;100.00
47104;BME280;32853;52.164;5.400;2024-03-23T02:15:15;100891.81;;;10.21;100.00
47104;BME280;32853;52.164;5.400;2024-03-23T02:17:41;100898.81;;;10.21;100.00
47104;BME280;32853;52.164;5.400;2024-03-23T02:20:06;100899.03;;;10.14;100.00
47104;BME280;32853;52.164;5.400;2024-03-23T02:22:38;100896.34;;;10.16;100.00
47104;BME280;32853;52.164;5.400;2024-03-23T02:25:04;100897.44;;;10.10;100.00
47104;BME280;32853;52.164;5.400;2024-03-23T02:27:29;100893.22;;;10.06;100.00
47104;BME280;32853;52.164;5.400;2024-03-23T02:32:53;100879.81;;;9.92;100.00
47104;BME280;32853;52.164;5.400;2024-03-23T02:37:53;100876.88;;;9.78;100.00
47104;BME280;32853;52.164;5.400;2024-03-23T02:40:19;100878.13;;;9.91;100.00
47104;BME280;32853;52.164;5.400;2024-03-23T02:42:46;100879.09;;;9.88;100.00
47104;BME280;32853;52.164;5.400;2024-03-23T02:45:13;100880.16;;;9.83;100.00
47104;BME280;32853;52.164;5.400;2024-03-23T02:47:51;100793.50;;;9.23;100.00
47104;BME280;32853;52.164;5.400;2024-03-23T02:50:28;100873.47;;;9.76;100.00
47104;BME280;32853;52.164;5.400;2024-03-23T02:52:53;100866.41;;;9.78;100.00
47104;BME280;32853;52.164;5.400;2024-03-23T02:55:19;100874.69;;;9.66;100.00
47104;BME280;32853;52.164;5.400;2024-03-23T02:57:44;100873.47;;;9.74;100.00
47104;BME280;32853;52.164;5.400;2024-03-23T03:00:11;100878.81;;;9.71;100.00
47104;BME280;32853;52.164;5.400;2024-03-23T03:02:37;100874.69;;;9.66;100.00
47104;BME280;32853;52.164;5.400;2024-03-23T03:05:16;100879.09;;;9.64;100.00
47104;BME280;32853;52.164;5.400;2024-03-23T03:07:41;100873.84;;;9.65;100.00
47104;BME280;32853;52.164;5.400;2024-03-23T03:10:07;100879.16;;;9.62;100.00
47104;BME280;32853;52.164;5.400;2024-03-23T03:12:36;100881.94;;;9.57;100.00
47104;BME280;32853;52.164;5.400;2024-03-23T03:15:01;100874.34;;;9.50;100.00
47104;BME280;32853;52.164;5.400;2024-03-23T03:17:28;100878.84;;;9.46;100.00
47104;BME280;32853;52.164;5.400;2024-03-23T03:19:54;100873.44;;;9.51;100.00
47104;BME280;32853;52.164;5.400;2024-03-23T03:22:23;100878.28;;;9.61;100.00
47104;BME280;32853;52.164;5.400;2024-03-23T03:24:49;100877.56;;;9.58;100.00
47104;BME280;32853;52.164;5.400;2024-03-23T03:27:14;100869.91;;;9.53;100.00
47104;BME280;32853;52.164;5.400;2024-03-23T03:29:39;100874.41;;;9.48;100.00
47104;BME280;32853;52.164;5.400;2024-03-23T03:32:19;100866.69;;;9.45;100.00
47104;BME280;32853;52.164;5.400;2024-03-23T03:34:44;100863.19;;;9.46;100.00
47104;BME280;32853;52.164;5.400;2024-03-23T03:37:11;100867.97;;;9.34;100.00
47104;BME280;32853;52.164;5.400;2024-03-23T03:39:36;100861.00;;;9.34;100.00
47104;BME280;32853;52.164;5.400;2024-03-23T03:42:02;100862.09;;;9.27;100.00
47104;BME280;32853;52.164;5.400;2024-03-23T03:44:31;100858.44;;;9.32;100.00
47104;BME280;32853;52.164;5.400;2024-03-23T03:47:01;100849.97;;;9.26;100.00
47104;BME280;32853;52.164;5.400;2024-03-23T03:49:27;100852.63;;;9.24;100.00
47104;BME280;32853;52.164;5.400;2024-03-23T03:51:52;100846.97;;;9.12;100.00
47104;BME280;32853;52.164;5.400;2024-03-23T03:54:17;100843.50;;;9.11;100.00
47104;BME280;32853;52.164;5.400;2024-03-23T03:56:42;100849.41;;;9.16;100.00
47104;BME280;32853;52.164;5.400;2024-03-23T03:59:08;100853.78;;;9.16;100.00
47104;BME280;32853;52.164;5.400;2024-03-23T04:01:33;100845.16;;;9.14;100.00
47104;BME280;32853;52.164;5.400;2024-03-23T04:03:58;100843.50;;;9.11;100.00
47104;BME280;32853;52.164;5.400;2024-03-23T04:06:23;100848.88;;;9.07;100.00
47104;BME280;32853;52.164;5.400;2024-03-23T04:08:53;100842.06;;;9.02;100.00
47104;BME280;32853;52.164;5.400;2024-03-23T04:11:26;100843.50;;;8.85;100.00
47104;BME280;32853;52.164;5.400;2024-03-23T04:14:02;100846.06;;;8.86;100.00
47104;BME280;32853;52.164;5.400;2024-03-23T04:16:27;100837.34;;;8.87;100.00
47104;BME280;32853;52.164;5.400;2024-03-23T04:18:54;100837.25;;;8.90;100.00
47104;BME280;32853;52.164;5.400;2024-03-23T04:21:30;100835.44;;;8.92;100.00
47104;BME280;32853;52.164;5.400;2024-03-23T04:23:56;100832.88;;;8.91;100.00
47104;BME280;32853;52.164;5.400;2024-03-23T04:26:22;100835.53;;;8.89;100.00
47104;BME280;32853;52.164;5.400;2024-03-23T04:28:47;100831.00;;;8.94;100.00
47104;BME280;32853;52.164;5.400;2024-03-23T04:31:12;100829.31;;;8.93;100.00
47104;BME280;32853;52.164;5.400;2024-03-23T04:33:40;100832.84;;;8.92;100.00
47104;BME280;32853;52.164;5.400;2024-03-23T04:36:06;100822.84;;;8.79;100.00
47104;BME280;32853;52.164;5.400;2024-03-23T04:38:49;100820.94;;;8.84;100.00
47104;BME280;32853;52.164;5.400;2024-03-23T04:41:15;100822.81;;;8.80;100.00
47104;BME280;32853;52.164;5.400;2024-03-23T04:43:40;100825.25;;;8.85;100.00
47104;BME280;32853;52.164;5.400;2024-03-23T04:46:05;100825.34;;;8.82;100.00
47104;BME280;32853;52.164;5.400;2024-03-23T04:48:35;100837.66;;;8.78;100.00
47104;BME280;32853;52.164;5.400;2024-03-23T04:51:01;100822.84;;;8.79;100.00
47104;BME280;32853;52.164;5.400;2024-03-23T04:53:29;100836.75;;;8.79;100.00
47104;BME280;32853;52.164;5.400;2024-03-23T04:55:55;100837.72;;;8.75;100.00
47104;BME280;32853;52.164;5.400;2024-03-23T04:58:21;100830.00;;;8.72;100.00
47104;BME280;32853;52.164;5.400;2024-03-23T05:00:46;100831.66;;;8.74;100.00
47104;BME280;32853;52.164;5.400;2024-03-23T05:03:11;100828.59;;;8.62;100.00
47104;BME280;32853;52.164;5.400;2024-03-23T05:05:36;100824.41;;;8.58;100.00
47104;BME280;32853;52.164;5.400;2024-03-23T05:08:02;100830.31;;;8.63;100.00
47104;BME280;32853;52.164;5.400;2024-03-23T05:10:27;100831.38;;;8.57;100.00
47104;BME280;32853;52.164;5.400;2024-03-23T05:12:52;100825.53;;;8.49;100.00
47104;BME280;32853;52.164;5.400;2024-03-23T05:15:18;100824.56;;;8.52;100.00
47104;BME280;32853;52.164;5.400;2024-03-23T05:17:43;100833.41;;;8.48;100.00
47104;BME280;32853;52.164;5.400;2024-03-23T05:20:11;100826.50;;;8.47;100.00
47104;BME280;32853;52.164;5.400;2024-03-23T05:22:37;100831.53;;;8.51;100.00
47104;BME280;32853;52.164;5.400;2024-03-23T05:25:02;100835.09;;;8.49;100.00
47104;BME280;32853;52.164;5.400;2024-03-23T05:27:30;100830.81;;;8.48;100.00
47104;BME280;32853;52.164;5.400;2024-03-23T05:29:55;100828.31;;;8.44;100.00
47104;BME280;32853;52.164;5.400;2024-03-23T05:32:20;100830.97;;;8.43;100.00
47104;BME280;32853;52.164;5.400;2024-03-23T05:34:45;100837.25;;;8.36;100.00
47104;BME280;32853;52.164;5.400;2024-03-23T05:37:11;100831.19;;;8.35;100.00
47104;BME280;32853;52.164;5.400;2024-03-23T05:39:36;100833.03;;;8.30;100.00
47104;BME280;32853;52.164;5.400;2024-03-23T05:42:03;100837.31;;;8.33;100.00
47104;BME280;32853;52.164;5.400;2024-03-23T05:44:29;100835.69;;;8.29;100.00
47104;BME280;32853;52.164;5.400;2024-03-23T05:46:54;100831.44;;;8.26;100.00
47104;BME280;32853;52.164;5.400;2024-03-23T05:49:22;100836.63;;;8.26;100.00
47104;BME280;32853;52.164;5.400;2024-03-23T05:51:47;100826.13;;;8.29;100.00
47104;BME280;32853;52.164;5.400;2024-03-23T05:54:12;100829.50;;;8.33;100.00
47104;BME280;32853;52.164;5.400;2024-03-23T05:56:37;100826.06;;;8.31;100.00
47104;BME280;32853;52.164;5.400;2024-03-23T05:59:10;100822.34;;;8.39;100.00
47104;BME280;32853;52.164;5.400;2024-03-23T06:01:37;100820.56;;;8.41;100.00
47104;BME280;32853;52.164;5.400;2024-03-23T06:04:06;100824.97;;;8.39;100.00
47104;BME280;32853;52.164;5.400;2024-03-23T06:06:31;100818.66;;;8.47;100.00
47104;BME280;32853;52.164;5.400;2024-03-23T06:08:56;100823.78;;;8.50;100.00
47104;BME280;32853;52.164;5.400;2024-03-23T06:11:22;100825.44;;;8.52;100.00
47104;BME280;32853;52.164;5.400;2024-03-23T06:13:51;100826.59;;;8.43;100.00
47104;BME280;32853;52.164;5.400;2024-03-23T06:16:23;100820.47;;;8.44;100.00
47104;BME280;32853;52.164;5.400;2024-03-23T06:18:52;100830.75;;;8.49;100.00
47104;BME280;32853;52.164;5.400;2024-03-23T06:21:21;100830.22;;;8.38;100.00
47104;BME280;32853;52.164;5.400;2024-03-23T06:23:48;100828.59;;;8.34;100.00
47104;BME280;32853;52.164;5.400;2024-03-23T06:26:26;100814.72;;;8.33;100.00
47104;BME280;32853;52.164;5.400;2024-03-23T06:28:51;100822.66;;;8.29;100.00
47104;BME280;32853;52.164;5.400;2024-03-23T06:31:25;100816.53;;;8.30;100.00
47104;BME280;32853;52.164;5.400;2024-03-23T06:33:52;100817.19;;;8.38;100.00
47104;BME280;32853;52.164;5.400;2024-03-23T06:36:26;100810.13;;;8.41;100.00
47104;BME280;32853;52.164;5.400;2024-03-23T06:38:51;100809.31;;;8.39;100.00
47104;BME280;32853;52.164;5.400;2024-03-23T06:41:17;100811.09;;;8.39;100.00
47104;BME280;32853;52.164;5.400;2024-03-23T06:43:43;100808.53;;;8.37;100.00
47104;BME280;32853;52.164;5.400;2024-03-23T06:46:08;100814.25;;;8.49;100.00
47104;BME280;32853;52.164;5.400;2024-03-23T06:48:36;100805.41;;;8.54;100.00
47104;BME280;32853;52.164;5.400;2024-03-23T06:51:05;100813.97;;;8.58;100.00
47104;BME280;32853;52.164;5.400;2024-03-23T06:53:43;100810.00;;;8.46;100.00
47104;BME280;32853;52.164;5.400;2024-03-23T06:58:50;100809.72;;;8.55;100.00
47104;BME280;32853;52.164;5.400;2024-03-23T07:01:19;100822.47;;;8.63;100.00
47104;BME280;32853;52.164;5.400;2024-03-23T07:03:45;100816.06;;;8.73;100.00
47104;BME280;32853;52.164;5.400;2024-03-23T07:08:41;100818.69;;;8.73;100.00
47104;BME280;32853;52.164;5.400;2024-03-23T07:14:25;100815.44;;;8.66;100.00
47104;BME280;32853;52.164;5.400;2024-03-23T07:16:54;100808.69;;;8.87;100.00
47104;BME280;32853;52.164;5.400;2024-03-23T07:19:22;100808.16;;;9.02;100.00
47104;BME280;32853;52.164;5.400;2024-03-23T07:21:49;100815.19;;;9.00;100.00
47104;BME280;32853;52.164;5.400;2024-03-23T07:24:21;100808.81;;;9.08;100.00
47104;BME280;32853;52.164;5.400;2024-03-23T07:26:53;100807.47;;;9.22;100.00
47104;BME280;32853;52.164;5.400;2024-03-23T07:29:27;100814.16;;;9.05;100.00
47104;BME280;32853;52.164;5.400;2024-03-23T07:32:02;100817.66;;;9.03;100.00
47104;BME280;32853;52.164;5.400;2024-03-23T07:34:50;100812.38;;;9.31;100.00
47104;BME280;32853;52.164;5.400;2024-03-23T07:37:21;100819.50;;;9.26;100.00
47104;BME280;32853;52.164;5.400;2024-03-23T07:43:08;100811.94;;;9.44;100.00
47104;BME280;32853;52.164;5.400;2024-03-23T07:45:58;100818.66;;;9.26;100.00
47104;BME280;32853;52.164;5.400;2024-03-23T07:54:53;100819.16;;;9.60;100.00
47104;BME280;32853;52.164;5.400;2024-03-23T07:57:22;100806.88;;;9.63;100.00
47104;BME280;32853;52.164;5.400;2024-03-23T07:59:47;100818.56;;;9.77;100.00
47104;BME280;32853;52.164;5.400;2024-03-23T08:02:12;100831.09;;;9.68;100.00
47104;BME280;32853;52.164;5.400;2024-03-23T08:04:40;100812.88;;;9.66;100.00
47104;BME280;32853;52.164;5.400;2024-03-23T08:07:06;100817.13;;;9.92;100.00
47104;BME280;32853;52.164;5.400;2024-03-23T08:09:31;100808.72;;;9.84;100.00
47104;BME280;32853;52.164;5.400;2024-03-23T08:11:56;100806.88;;;9.86;100.00
47104;BME280;32853;52.164;5.400;2024-03-23T08:14:22;100807.47;;;9.94;100.00
47104;BME280;32853;52.164;5.400;2024-03-23T08:16:47;100807.19;;;9.78;100.00
47104;BME280;32853;52.164;5.400;2024-03-23T08:19:21;100804.66;;;9.77;100.00
47104;BME280;32853;52.164;5.400;2024-03-23T08:22:01;100812.41;;;9.78;100.00
47104;BME280;32853;52.164;5.400;2024-03-23T08:24:28;100813.38;;;9.99;100.00
47104;BME280;32853;52.164;5.400;2024-03-23T08:26:54;100807.38;;;10.19;100.00
47104;BME280;32853;52.164;5.400;2024-03-23T08:29:22;100821.47;;;10.15;100.00
47104;BME280;32853;52.164;5.400;2024-03-23T08:31:50;100805.91;;;10.12;100.00
47104;BME280;32853;52.164;5.400;2024-03-23T08:34:15;100824.50;;;10.04;100.00
47104;BME280;32853;52.164;5.400;2024-03-23T08:36:40;100813.69;;;10.13;100.00
47104;BME280;32853;52.164;5.400;2024-03-23T08:39:06;100819.53;;;9.97;100.00
47104;BME280;32853;52.164;5.400;2024-03-23T08:43:59;100816.97;;;10.18;100.00
47104;BME280;32853;52.164;5.400;2024-03-23T08:46:27;100825.34;;;10.28;100.00
47104;BME280;32853;52.164;5.400;2024-03-23T08:48:52;100816.06;;;10.19;100.00
47104;BME280;32853;52.164;5.400;2024-03-23T08:51:18;100819.16;;;10.07;98.65
47104;BME280;32853;52.164;5.400;2024-03-23T08:54:02;100826.59;;;9.71;99.94
47104;BME280;32853;52.164;5.400;2024-03-23T08:56:27;100823.53;;;9.83;99.15
47104;BME280;32853;52.164;5.400;2024-03-23T08:58:52;100816.50;;;9.85;99.85
47104;BME280;32853;52.164;5.400;2024-03-23T09:01:18;100813.13;;;10.05;97.40
47104;BME280;32853;52.164;5.400;2024-03-23T09:03:43;100826.09;;;10.32;97.26
47104;BME280;32853;52.164;5.400;2024-03-23T09:06:10;100807.31;;;10.44;93.56
47104;BME280;32853;52.164;5.400;2024-03-23T09:08:38;100830.50;;;10.53;88.22
47104;BME280;32853;52.164;5.400;2024-03-23T09:11:07;100824.50;;;10.28;87.86
47104;BME280;32853;52.164;5.400;2024-03-23T09:13:33;100824.94;;;10.39;86.65
47104;BME280;32853;52.164;5.400;2024-03-23T09:15:58;100825.41;;;10.27;86.34
47104;BME280;32853;52.164;5.400;2024-03-23T09:18:24;100815.94;;;10.24;84.31
47104;BME280;32853;52.164;5.400;2024-03-23T09:20:50;100816.06;;;10.19;83.44
47104;BME280;32853;52.164;5.400;2024-03-23T09:23:21;100834.72;;;10.10;85.03
47104;BME280;32853;52.164;5.400;2024-03-23T09:25:48;100807.84;;;10.07;87.92
47104;BME280;32853;52.164;5.400;2024-03-23T09:28:22;100800.78;;;9.87;90.77
47104;BME280;32853;52.164;5.400;2024-03-23T09:30:47;100802.88;;;9.77;93.30
47104;BME280;32853;52.164;5.400;2024-03-23T09:33:19;100801.47;;;10.14;95.45
47104;BME280;32853;52.164;5.400;2024-03-23T09:35:46;100800.63;;;10.37;94.90
47104;BME280;32853;52.164;5.400;2024-03-23T09:38:12;100803.03;;;10.41;92.73
47104;BME280;32853;52.164;5.400;2024-03-23T09:40:44;100802.19;;;10.41;93.23
47104;BME280;32853;52.164;5.400;2024-03-23T09:45:39;100798.56;;;10.45;89.67
47104;BME280;32853;52.164;5.400;2024-03-23T09:48:08;100810.44;;;10.52;91.90
47104;BME280;32853;52.164;5.400;2024-03-23T09:50:46;100797.28;;;10.33;95.73
47104;BME280;32853;52.164;5.400;2024-03-23T09:53:20;100795.25;;;10.62;93.94
47104;BME280;32853;52.164;5.400;2024-03-23T09:55:49;100798.28;;;10.73;93.41
47104;BME280;32853;52.164;5.400;2024-03-23T09:58:16;100795.50;;;10.77;91.08
47104;BME280;32853;52.164;5.400;2024-03-23T10:00:41;100787.25;;;10.87;91.16
47104;BME280;32853;52.164;5.400;2024-03-23T10:03:09;100790.97;;;10.81;86.59
47104;BME280;32853;52.164;5.400;2024-03-23T10:05:36;100768.53;;;10.96;87.75
47104;BME280;32853;52.164;5.400;2024-03-23T10:10:40;100782.16;;;11.24;89.47
47104;BME280;32853;52.164;5.400;2024-03-23T10:13:05;100783.00;;;11.04;81.89
47104;BME280;32853;52.164;5.400;2024-03-23T10:21:06;100798.53;;;10.67;79.86
47104;BME280;32853;52.164;5.400;2024-03-23T10:23:32;100812.06;;;10.56;78.72
47104;BME280;32853;52.164;5.400;2024-03-23T10:26:15;100798.97;;;10.56;81.50
47104;BME280;32853;52.164;5.400;2024-03-23T10:28:57;100792.09;;;10.96;80.29
47104;BME280;32853;52.164;5.400;2024-03-23T10:31:33;100791.63;;;11.27;75.88
47104;BME280;32853;52.164;5.400;2024-03-23T10:34:03;100784.84;;;11.23;72.56
47104;BME280;32853;52.164;5.400;2024-03-23T10:36:30;100784.09;;;11.40;70.11
47104;BME280;32853;52.164;5.400;2024-03-23T10:38:55;100781.31;;;11.24;69.17
47104;BME280;32853;52.164;5.400;2024-03-23T10:41:21;100789.34;;;10.79;72.07
47104;BME280;32853;52.164;5.400;2024-03-23T10:43:47;100800.72;;;10.77;73.73
47104;BME280;32853;52.164;5.400;2024-03-23T10:46:22;100787.75;;;10.74;74.54
47104;BME280;32853;52.164;5.400;2024-03-23T10:48:48;100785.56;;;10.64;75.49
47104;BME280;32853;52.164;5.400;2024-03-23T10:51:15;100792.63;;;10.62;74.86
47104;BME280;32853;52.164;5.400;2024-03-23T10:53:45;100788.38;;;10.59;74.17
47104;BME280;32853;52.164;5.400;2024-03-23T10:56:11;100805.78;;;10.60;77.34
47104;BME280;32853;52.164;5.400;2024-03-23T10:58:41;100801.38;;;10.83;75.10
47104;BME280;32853;52.164;5.400;2024-03-23T11:01:11;100799.94;;;10.96;75.21
47104;BME280;32853;52.164;5.400;2024-03-23T11:03:38;100793.72;;;11.19;75.62
47104;BME280;32853;52.164;5.400;2024-03-23T11:08:48;100786.25;;;11.30;72.51
47104;BME280;32853;52.164;5.400;2024-03-23T11:11:14;100782.00;;;11.48;73.82
47104;BME280;32853;52.164;5.400;2024-03-23T11:13:42;100776.59;;;10.91;69.10
47104;BME280;32853;52.164;5.400;2024-03-23T11:22:11;100792.09;;;10.75;71.20
47104;BME280;32853;52.164;5.400;2024-03-23T11:24:37;100793.25;;;10.68;71.08
47104;BME280;32853;52.164;5.400;2024-03-23T11:27:15;100798.16;;;10.96;68.38
47104;BME280;32853;52.164;5.400;2024-03-23T11:29:40;100780.78;;;11.16;68.73
47104;BME280;32853;52.164;5.400;2024-03-23T11:32:11;100769.66;;;11.50;67.63
47104;BME280;32853;52.164;5.400;2024-03-23T11:34:38;100781.03;;;11.30;69.19
47104;BME280;32853;52.164;5.400;2024-03-23T11:37:05;100770.00;;;11.03;75.61
47104;BME280;32853;52.164;5.400;2024-03-23T11:39:34;100778.94;;;11.18;76.38
47104;BME280;32853;52.164;5.400;2024-03-23T11:41:59;100763.66;;;11.09;75.31
47104;BME280;32853;52.164;5.400;2024-03-23T11:44:28;100772.34;;;11.09;72.97
47104;BME280;32853;52.164;5.400;2024-03-23T11:46:53;100779.59;;;11.02;70.55
47104;BME280;32853;52.164;5.400;2024-03-23T11:49:23;100770.34;;;10.73;71.79
47104;BME280;32853;52.164;5.400;2024-03-23T11:51:48;100765.13;;;11.14;70.88
47104;BME280;32853;52.164;5.400;2024-03-23T11:54:13;100764.41;;;11.31;67.72
47104;BME280;32853;52.164;5.400;2024-03-23T11:56:39;100757.34;;;11.33;63.17
47104;BME280;32853;52.164;5.400;2024-03-23T11:59:04;100763.75;;;11.05;60.51
47104;BME280;32853;52.164;5.400;2024-03-23T12:01:29;100771.75;;;11.02;60.25
47104;BME280;32853;52.164;5.400;2024-03-23T12:03:55;100767.16;;;10.67;61.77
47104;BME280;32853;52.164;5.400;2024-03-23T12:06:21;100774.75;;;10.51;64.37
47104;BME280;32853;52.164;5.400;2024-03-23T12:08:50;100761.09;;;10.87;65.14
47104;BME280;32853;52.164;5.400;2024-03-23T12:11:16;100777.09;;;10.79;63.41
47104;BME280;32853;52.164;5.400;2024-03-23T12:13:42;100780.16;;;10.68;64.27
47104;BME280;32853;52.164;5.400;2024-03-23T12:16:20;100760.81;;;10.93;63.57
47104;BME280;32853;52.164;5.400;2024-03-23T12:18:48;100750.34;;;11.13;62.66
47104;BME280;32853;52.164;5.400;2024-03-23T12:21:15;100757.41;;;11.31;62.24
47104;BME280;32853;52.164;5.400;2024-03-23T12:23:41;100761.59;;;11.35;59.89
47104;BME280;32853;52.164;5.400;2024-03-23T12:26:07;100762.97;;;11.24;57.66
47104;BME280;32853;52.164;5.400;2024-03-23T12:28:33;100741.28;;;11.41;58.66
47104;BME280;32853;52.164;5.400;2024-03-23T12:30:58;100729.06;;;11.60;58.97
47104;BME280;32853;52.164;5.400;2024-03-23T12:33:23;100727.16;;;11.82;59.55
47104;BME280;32853;52.164;5.400;2024-03-23T12:35:49;100737.34;;;11.70;59.05
47104;BME280;32853;52.164;5.400;2024-03-23T12:38:19;100729.09;;;11.98;57.52
47104;BME280;32853;52.164;5.400;2024-03-23T12:40:48;100716.25;;;11.91;57.70
47104;BME280;32853;52.164;5.400;2024-03-23T12:43:22;100731.91;;;11.93;58.47
47104;BME280;32853;52.164;5.400;2024-03-23T12:45:47;100727.91;;;12.22;57.27
47104;BME280;32853;52.164;5.400;2024-03-23T12:48:14;100723.16;;;12.47;57.01
47104;BME280;32853;52.164;5.400;2024-03-23T12:50:39;100728.00;;;12.20;55.98
47104;BME280;32853;52.164;5.400;2024-03-23T12:55:34;100733.47;;;11.20;58.26
47104;BME280;32853;52.164;5.400;2024-03-23T12:58:00;100728.34;;;11.56;57.85
47104;BME280;32853;52.164;5.400;2024-03-23T13:00:25;100733.19;;;11.84;58.28
47104;BME280;32853;52.164;5.400;2024-03-23T13:02:50;100745.78;;;11.76;57.33
47104;BME280;32853;52.164;5.400;2024-03-23T13:05:15;100728.75;;;11.86;57.11
47104;BME280;32853;52.164;5.400;2024-03-23T13:07:44;100724.97;;;12.28;54.80
47104;BME280;32853;52.164;5.400;2024-03-23T13:10:17;100732.81;;;12.47;53.93
47104;BME280;32853;52.164;5.400;2024-03-23T13:12:47;100725.78;;;12.47;51.67
47104;BME280;32853;52.164;5.400;2024-03-23T13:15:12;100748.50;;;12.30;54.74
47104;BME280;32853;52.164;5.400;2024-03-23T13:17:40;100712.91;;;12.60;53.26
47104;BME280;32853;52.164;5.400;2024-03-23T13:20:06;100715.91;;;12.87;52.75
47104;BME280;32853;52.164;5.400;2024-03-23T13:22:31;100728.56;;;12.44;51.10
47104;BME280;32853;52.164;5.400;2024-03-23T13:25:00;100739.56;;;11.98;53.26
47104;BME280;32853;52.164;5.400;2024-03-23T13:27:26;100756.66;;;11.48;55.74
47104;BME280;32853;52.164;5.400;2024-03-23T13:29:51;100750.22;;;11.55;56.26
47104;BME280;32853;52.164;5.400;2024-03-23T13:35:11;100729.56;;;10.90;55.84
47104;BME280;32853;52.164;5.400;2024-03-23T13:37:38;100739.28;;;11.06;56.01
47104;BME280;32853;52.164;5.400;2024-03-23T13:42:33;100729.63;;;10.88;56.24
47104;BME280;32853;52.164;5.400;2024-03-23T13:45:04;100729.88;;;11.02;57.69
47104;BME280;32853;52.164;5.400;2024-03-23T13:47:33;100730.97;;;11.17;57.48
47104;BME280;32853;52.164;5.400;2024-03-23T13:50:00;100731.81;;;11.57;57.38
47104;BME280;32853;52.164;5.400;2024-03-23T13:52:28;100726.78;;;11.71;57.90
47104;BME280;32853;52.164;5.400;2024-03-23T13:54:58;100735.06;;;11.43;59.07
47104;BME280;32853;52.164;5.400;2024-03-23T13:57:26;100729.47;;;11.51;62.32
47104;BME280;32853;52.164;5.400;2024-03-23T13:59:51;100731.53;;;11.63;70.76
47104;BME280;32853;52.164;5.400;2024-03-23T14:04:52;100707.63;;;12.08;83.02
47104;BME280;32853;52.164;5.400;2024-03-23T14:07:17;100713.47;;;11.95;79.36
47104;BME280;32853;52.164;5.400;2024-03-23T14:12:24;100699.69;;;11.53;74.98
47104;BME280;32853;52.164;5.400;2024-03-23T14:19:56;100683.69;;;11.59;74.40
47104;BME280;32853;52.164;5.400;2024-03-23T14:22:31;100688.38;;;11.53;71.40
47104;BME280;32853;52.164;5.400;2024-03-23T14:27:33;100688.03;;;11.79;73.59
47104;BME280;32853;52.164;5.400;2024-03-23T14:30:09;100687.03;;;11.82;67.94
47104;BME280;32853;52.164;5.400;2024-03-23T14:32:34;100682.63;;;12.18;67.59
47104;BME280;32853;52.164;5.400;2024-03-23T14:35:01;100688.34;;;12.27;69.20
47104;BME280;32853;52.164;5.400;2024-03-23T14:40:21;100676.25;;;11.69;61.71
47104;BME280;32853;52.164;5.400;2024-03-23T14:42:46;100678.38;;;11.80;61.90
47104;BME280;32853;52.164;5.400;2024-03-23T14:45:11;100659.97;;;11.81;61.60
47104;BME280;32853;52.164;5.400;2024-03-23T14:47:37;100675.09;;;11.93;62.61
47104;BME280;32853;52.164;5.400;2024-03-23T14:50:05;100671.88;;;11.88;59.23
47104;BME280;32853;52.164;5.400;2024-03-23T14:52:45;100670.00;;;11.72;57.66
47104;BME280;32853;52.164;5.400;2024-03-23T14:55:24;100669.50;;;11.63;57.48
47104;BME280;32853;52.164;5.400;2024-03-23T14:57:50;100670.66;;;11.58;56.61